createdAt,value
2019-01-24T00:00:39.916Z,-1.22
2019-01-24T00:03:09.045Z,-1.26
2019-01-24T00:05:38.181Z,-1.16
2019-01-24T00:08:07.238Z,-1.16
2019-01-24T00:10:36.320Z,-1.21
2019-01-24T00:13:05.493Z,-1.19
2019-01-24T00:15:34.621Z,-1.15
2019-01-24T00:18:03.754Z,-1.12
2019-01-24T00:20:32.951Z,-1.16
2019-01-24T00:23:02.018Z,-1.14
2019-01-24T00:25:31.113Z,-1.09
2019-01-24T00:28:00.207Z,-1.11
2019-01-24T00:30:29.373Z,-1.13
2019-01-24T00:32:58.492Z,-1.12
2019-01-24T00:35:27.651Z,-1.02
2019-01-24T00:37:56.782Z,-1.12
2019-01-24T00:40:25.968Z,-1.14
2019-01-24T00:42:55.102Z,-1.13
2019-01-24T00:45:24.198Z,-1.15
2019-01-24T00:47:53.381Z,-1.12
2019-01-24T00:50:22.573Z,-1.06
2019-01-24T00:52:51.671Z,-1.05
2019-01-24T00:55:21.487Z,-1.09
2019-01-24T00:57:50.595Z,-1.16
2019-01-24T01:00:21.842Z,-1.17
2019-01-24T01:02:51.015Z,-1.21
2019-01-24T01:05:20.326Z,-1.19
2019-01-24T01:07:49.596Z,-1.22
2019-01-24T01:10:18.718Z,-1.30
2019-01-24T01:12:47.838Z,-1.21
2019-01-24T01:15:17.963Z,-1.16
2019-01-24T01:17:47.068Z,-1.17
2019-01-24T01:20:20.849Z,-1.15
2019-01-24T01:22:50.073Z,-1.17
2019-01-24T01:25:19.210Z,-1.19
2019-01-24T01:27:48.367Z,-1.19
2019-01-24T01:30:19.579Z,-1.22
2019-01-24T01:32:48.712Z,-1.19
2019-01-24T01:35:17.909Z,-1.16
2019-01-24T01:37:46.964Z,-1.28
2019-01-24T01:40:16.630Z,-1.36
2019-01-24T01:42:45.739Z,-1.43
2019-01-24T01:45:16.952Z,-1.36
2019-01-24T01:47:46.118Z,-1.39
2019-01-24T01:50:16.966Z,-1.37
2019-01-24T01:52:46.060Z,-1.43
2019-01-24T01:55:15.440Z,-1.46
2019-01-24T01:57:44.617Z,-1.43
2019-01-24T02:00:18.703Z,-1.52
2019-01-24T02:02:47.840Z,-1.49
2019-01-24T02:05:17.004Z,-1.53
2019-01-24T02:07:46.172Z,-1.62
2019-01-24T02:10:17.386Z,-1.53
2019-01-24T02:12:46.571Z,-1.53
2019-01-24T02:15:15.943Z,-1.52
2019-01-24T02:17:45.240Z,-1.51
2019-01-24T02:20:16.986Z,-1.46
2019-01-24T02:22:46.039Z,-1.44
2019-01-24T02:25:15.137Z,-1.45
2019-01-24T02:27:44.215Z,-1.55
2019-01-24T02:30:18.992Z,-1.56
2019-01-24T02:32:48.212Z,-1.52
2019-01-24T02:35:17.330Z,-1.47
2019-01-24T02:37:46.522Z,-1.55
2019-01-24T02:40:15.646Z,-1.57
2019-01-24T02:42:44.769Z,-1.56
2019-01-24T02:45:15.078Z,-1.61
2019-01-24T02:47:44.217Z,-1.65
2019-01-24T02:50:15.060Z,-1.64
2019-01-24T02:52:44.155Z,-1.60
2019-01-24T02:55:14.419Z,-1.57
2019-01-24T02:57:43.827Z,-1.56
2019-01-24T03:00:15.382Z,-1.62
2019-01-24T03:02:44.482Z,-1.64
2019-01-24T03:05:15.090Z,-1.66
2019-01-24T03:07:44.264Z,-1.67
2019-01-24T03:10:13.947Z,-1.69
2019-01-24T03:12:43.093Z,-1.67
2019-01-24T03:15:13.929Z,-1.60
2019-01-24T03:17:43.115Z,-1.56
2019-01-24T03:20:12.360Z,-1.58
2019-01-24T03:22:42.360Z,-1.54
2019-01-24T03:25:11.461Z,-1.54
2019-01-24T03:27:40.624Z,-1.55
2019-01-24T03:30:15.263Z,-1.51
2019-01-24T03:32:44.355Z,-1.46
2019-01-24T03:35:15.692Z,-1.45
2019-01-24T03:37:44.862Z,-1.49
2019-01-24T03:40:14.301Z,-1.48
2019-01-24T03:42:43.437Z,-1.43
2019-01-24T03:45:14.043Z,-1.52
2019-01-24T03:47:43.185Z,-1.62
2019-01-24T03:50:14.841Z,-1.58
2019-01-24T03:52:43.994Z,-1.63
2019-01-24T03:55:14.158Z,-1.59
2019-01-24T03:57:43.269Z,-1.65
2019-01-24T04:00:17.790Z,-1.75
2019-01-24T04:02:46.938Z,-1.78
2019-01-24T04:05:16.136Z,-1.78
2019-01-24T04:07:45.337Z,-1.76
2019-01-24T04:10:16.288Z,-1.80
2019-01-24T04:12:45.395Z,-1.77
2019-01-24T04:15:16.662Z,-1.77
2019-01-24T04:17:45.763Z,-1.74
2019-01-24T04:20:14.835Z,-1.79
2019-01-24T04:22:44.002Z,-1.82
2019-01-24T04:25:13.427Z,-1.77
2019-01-24T04:27:42.537Z,-1.77
2019-01-24T04:30:14.276Z,-1.71
2019-01-24T04:32:43.403Z,-1.70
2019-01-24T04:35:19.429Z,-1.67
2019-01-24T04:37:43.339Z,-1.63
2019-01-24T04:40:14.358Z,-1.64
2019-01-24T04:42:43.507Z,-1.66
2019-01-24T04:45:13.547Z,-1.68
2019-01-24T04:47:42.602Z,-1.65
2019-01-24T04:50:13.611Z,-1.65
2019-01-24T04:52:42.783Z,-1.58
2019-01-24T04:55:13.129Z,-1.65
2019-01-24T04:57:42.251Z,-1.74
2019-01-24T05:00:28.489Z,-1.75
2019-01-24T05:02:57.579Z,-1.73
2019-01-24T05:05:28.077Z,-1.74
2019-01-24T05:07:57.364Z,-1.68
2019-01-24T05:10:26.476Z,-1.76
2019-01-24T05:12:55.610Z,-1.75
2019-01-24T05:15:24.796Z,-1.78
2019-01-24T05:17:54.006Z,-1.63
2019-01-24T05:20:23.188Z,-1.54
2019-01-24T05:22:52.226Z,-1.58
2019-01-24T05:25:21.377Z,-1.63
2019-01-24T05:27:50.438Z,-1.67
2019-01-24T05:30:24.346Z,-1.62
2019-01-24T05:32:55.273Z,-1.58
2019-01-24T05:35:24.507Z,-1.68
2019-01-24T05:37:53.620Z,-1.66
2019-01-24T05:40:22.786Z,-1.64
2019-01-24T05:42:51.889Z,-1.66
2019-01-24T05:45:20.971Z,-1.65
2019-01-24T05:47:50.057Z,-1.59
2019-01-24T05:50:19.123Z,-1.67
2019-01-24T05:52:48.268Z,-1.68
2019-01-24T05:55:17.684Z,-1.67
2019-01-24T05:57:46.849Z,-1.74
2019-01-24T06:00:22.408Z,-1.67
2019-01-24T06:02:51.478Z,-1.67
2019-01-24T06:05:20.714Z,-1.74
2019-01-24T06:07:49.855Z,-1.79
2019-01-24T06:10:19.052Z,-1.77
2019-01-24T06:12:48.111Z,-1.71
2019-01-24T06:15:17.276Z,-1.70
2019-01-24T06:17:46.352Z,-1.67
2019-01-24T06:20:15.426Z,-1.69
2019-01-24T06:22:44.608Z,-1.72
2019-01-24T06:25:13.872Z,-1.72
2019-01-24T06:27:43.014Z,-1.81
2019-01-24T06:30:17.334Z,-1.85
2019-01-24T06:32:46.468Z,-1.81
2019-01-24T06:35:15.530Z,-1.77
2019-01-24T06:37:44.670Z,-1.71
2019-01-24T06:40:14.564Z,-1.69
2019-01-24T06:42:43.720Z,-1.72
2019-01-24T06:45:17.897Z,-1.62
2019-01-24T06:47:47.065Z,-1.62
2019-01-24T06:50:16.740Z,-1.68
2019-01-24T06:52:45.836Z,-1.73
2019-01-24T06:55:17.516Z,-1.68
2019-01-24T06:57:46.845Z,-1.77
2019-01-24T07:00:16.889Z,-1.80
2019-01-24T07:02:46.100Z,-1.76
2019-01-24T07:05:15.345Z,-1.79
2019-01-24T07:07:44.575Z,-1.80
2019-01-24T07:10:15.602Z,-1.70
2019-01-24T07:12:44.766Z,-1.70
2019-01-24T07:15:18.702Z,-1.65
2019-01-24T07:17:47.740Z,-1.65
2019-01-24T07:20:17.223Z,-1.70
2019-01-24T07:22:46.359Z,-1.66
2019-01-24T07:25:17.849Z,-1.67
2019-01-24T07:27:46.933Z,-1.68
2019-01-24T07:30:16.687Z,-1.64
2019-01-24T07:32:45.888Z,-1.56
2019-01-24T07:35:16.169Z,-1.59
2019-01-24T07:37:45.275Z,-1.57
2019-01-24T07:40:15.567Z,-1.49
2019-01-24T07:42:44.676Z,-1.50
2019-01-24T07:45:15.981Z,-1.51
2019-01-24T07:47:45.132Z,-1.43
2019-01-24T07:50:14.276Z,-1.46
2019-01-24T07:52:43.429Z,-1.47
2019-01-24T07:55:12.732Z,-1.45
2019-01-24T07:57:41.991Z,-1.37
2019-01-24T08:00:17.156Z,-1.38
2019-01-24T08:02:46.241Z,-1.33
2019-01-24T08:05:15.409Z,-1.26
2019-01-24T08:07:44.563Z,-1.23
2019-01-24T08:10:14.864Z,-1.23
2019-01-24T08:12:44.043Z,-1.23
2019-01-24T08:15:14.277Z,-1.07
2019-01-24T08:17:43.545Z,-1.06
2019-01-24T08:20:21.067Z,-1.04
2019-01-24T08:22:50.109Z,-1.05
2019-01-24T08:25:19.189Z,-1.07
2019-01-24T08:27:48.312Z,-1.03
2019-01-24T08:30:19.378Z,-1.00
2019-01-24T08:32:48.499Z,-0.99
2019-01-24T08:35:17.695Z,-0.91
2019-01-24T08:37:46.931Z,-0.91
2019-01-24T08:40:16.205Z,-0.84
2019-01-24T08:42:45.266Z,-0.83
2019-01-24T08:45:15.039Z,-0.83
2019-01-24T08:47:44.136Z,-0.76
2019-01-24T08:50:15.666Z,-0.68
2019-01-24T08:52:44.830Z,-0.69
2019-01-24T08:55:19.966Z,-0.77
2019-01-24T08:57:49.000Z,-0.70
2019-01-24T09:00:19.364Z,-0.73
2019-01-24T09:02:48.588Z,-0.71
2019-01-24T09:05:17.731Z,-0.66
2019-01-24T09:07:46.946Z,-0.64
2019-01-24T09:10:18.944Z,-0.70
2019-01-24T09:12:48.040Z,-0.60
2019-01-24T09:15:17.176Z,-0.53
2019-01-24T09:17:46.242Z,-0.56
2019-01-24T09:20:16.036Z,-0.58
2019-01-24T09:22:45.217Z,-0.65
2019-01-24T09:25:14.357Z,-0.57
2019-01-24T09:27:43.507Z,-0.54
2019-01-24T09:30:15.363Z,-0.52
2019-01-24T09:32:44.477Z,-0.60
2019-01-24T09:35:13.565Z,-0.56
2019-01-24T09:37:42.628Z,-0.57
2019-01-24T09:40:12.589Z,-0.52
2019-01-24T09:42:41.727Z,-0.55
2019-01-24T09:45:13.574Z,-0.54
2019-01-24T09:47:42.715Z,-0.55
2019-01-24T09:50:14.349Z,-0.41
2019-01-24T09:52:43.422Z,-0.45
2019-01-24T09:55:12.511Z,-0.37
2019-01-24T09:57:41.591Z,-0.26
2019-01-24T10:00:15.640Z,-0.36
2019-01-24T10:02:44.806Z,-0.30
2019-01-24T10:05:14.003Z,-0.29
2019-01-24T10:07:43.134Z,-0.29
2019-01-24T10:10:14.601Z,-0.28
2019-01-24T10:12:43.812Z,-0.32
2019-01-24T10:15:13.094Z,-0.28
2019-01-24T10:17:42.239Z,-0.22
2019-01-24T10:20:13.100Z,-0.25
2019-01-24T10:22:42.245Z,-0.29
2019-01-24T10:25:15.527Z,-0.32
2019-01-24T10:27:44.637Z,-0.27
2019-01-24T10:30:15.173Z,-0.38
2019-01-24T10:32:44.328Z,-0.32
2019-01-24T10:35:13.461Z,-0.25
2019-01-24T10:37:42.645Z,-0.21
2019-01-24T10:40:14.765Z,-0.30
2019-01-24T10:42:43.824Z,-0.31
2019-01-24T10:45:14.229Z,-0.18
2019-01-24T10:47:43.366Z,-0.02
2019-01-24T10:50:13.722Z,-0.08
2019-01-24T10:52:42.842Z,-0.08
2019-01-24T10:55:13.937Z,-0.03
2019-01-24T10:57:43.173Z,0.15
2019-01-24T11:00:15.335Z,0.37
2019-01-24T11:02:44.469Z,0.35
2019-01-24T11:05:14.608Z,0.40
2019-01-24T11:07:43.654Z,0.48
2019-01-24T11:10:13.057Z,0.59
2019-01-24T11:12:42.298Z,0.24
2019-01-24T11:15:14.283Z,0.30
2019-01-24T11:17:43.403Z,0.96
2019-01-24T11:20:13.309Z,1.16
2019-01-24T11:22:42.422Z,1.36
2019-01-24T11:25:16.606Z,1.35
2019-01-24T11:27:45.906Z,1.45
2019-01-24T11:30:20.401Z,1.96
2019-01-24T11:32:49.478Z,2.13
2019-01-24T11:35:18.900Z,2.58
2019-01-24T11:37:47.957Z,2.99
2019-01-24T11:40:17.530Z,1.58
2019-01-24T11:42:46.852Z,1.94
2019-01-24T11:45:16.791Z,3.26
2019-01-24T11:47:46.007Z,4.23
2019-01-24T11:50:18.708Z,5.26
2019-01-24T11:52:47.770Z,4.45
2019-01-24T11:55:18.173Z,3.09
2019-01-24T11:57:47.371Z,1.61
2019-01-24T12:00:21.557Z,0.98
2019-01-24T12:02:50.714Z,0.81
2019-01-24T12:05:19.873Z,0.54
2019-01-24T12:07:49.026Z,0.33
2019-01-24T12:10:20.015Z,0.28
2019-01-24T12:12:49.362Z,0.32
2019-01-24T12:15:19.680Z,0.40
2019-01-24T12:17:48.772Z,0.25
2019-01-24T12:20:19.397Z,0.13
2019-01-24T12:22:48.536Z,0.09
2019-01-24T12:25:17.736Z,0.07
2019-01-24T12:27:47.647Z,-0.10
2019-01-24T12:30:22.420Z,-0.03
2019-01-24T12:32:51.495Z,-0.06
2019-01-24T12:35:20.656Z,-0.11
2019-01-24T12:37:49.825Z,-0.15
2019-01-24T12:40:18.886Z,-0.16
2019-01-24T12:42:48.012Z,-0.38
2019-01-24T12:45:19.526Z,-0.43
2019-01-24T12:47:48.604Z,-0.41
2019-01-24T12:50:18.033Z,-0.31
2019-01-24T12:52:47.171Z,-0.25
2019-01-24T12:55:16.372Z,-0.08
2019-01-24T12:57:45.618Z,-0.09
2019-01-24T13:00:34.900Z,-0.06
2019-01-24T13:03:03.970Z,0.10
2019-01-24T13:05:33.035Z,0.09
2019-01-24T13:08:02.104Z,0.01
2019-01-24T13:10:31.374Z,-0.07
2019-01-24T13:13:00.515Z,-0.21
2019-01-24T13:15:31.503Z,-0.18
2019-01-24T13:18:00.628Z,-0.13
2019-01-24T13:20:29.760Z,-0.17
2019-01-24T13:22:58.880Z,-0.28
2019-01-24T13:25:32.946Z,-0.34
2019-01-24T13:28:02.228Z,-0.29
2019-01-24T13:30:32.738Z,-0.38
2019-01-24T13:33:01.996Z,-0.44
2019-01-24T13:35:31.145Z,-0.41
2019-01-24T13:38:00.321Z,-0.37
2019-01-24T13:40:30.758Z,-0.31
2019-01-24T13:43:00.542Z,-0.24
2019-01-24T13:45:34.486Z,-0.36
2019-01-24T13:48:03.489Z,-0.41
2019-01-24T13:50:32.585Z,-0.50
2019-01-24T13:53:01.746Z,-0.51
2019-01-24T13:55:30.861Z,-0.46
2019-01-24T13:58:00.238Z,-0.40
2019-01-24T14:00:34.497Z,-0.44
2019-01-24T14:03:09.866Z,-0.45
2019-01-24T14:05:38.961Z,-0.53
2019-01-24T14:08:08.093Z,-0.46
2019-01-24T14:10:37.227Z,-0.49
2019-01-24T14:13:06.358Z,-0.48
2019-01-24T14:15:35.466Z,-0.53
2019-01-24T14:18:04.681Z,-0.59
2019-01-24T14:20:33.747Z,-0.55
2019-01-24T14:23:02.872Z,-0.50
2019-01-24T14:25:32.020Z,-0.56
2019-01-24T14:28:01.192Z,-0.45
2019-01-24T14:30:30.550Z,-0.54
2019-01-24T14:32:59.681Z,-0.61
2019-01-24T14:35:28.736Z,-0.63
2019-01-24T14:37:57.915Z,-0.60
2019-01-24T14:40:27.068Z,-0.62
2019-01-24T14:42:56.297Z,-0.67
2019-01-24T14:45:25.490Z,-0.63
2019-01-24T14:47:54.591Z,-0.60
2019-01-24T14:50:24.959Z,-0.64
2019-01-24T14:52:54.118Z,-0.68
2019-01-24T14:55:23.174Z,-0.72
2019-01-24T14:57:52.246Z,-0.80
2019-01-24T15:00:42.251Z,-0.86
2019-01-24T15:03:11.405Z,-0.87
2019-01-24T15:05:40.555Z,-0.90
2019-01-24T15:08:09.712Z,-0.91
2019-01-24T15:10:38.857Z,-0.90
2019-01-24T15:13:07.995Z,-0.86
2019-01-24T15:15:37.117Z,-0.85
2019-01-24T15:18:06.208Z,-0.87
2019-01-24T15:20:35.350Z,-0.84
2019-01-24T15:23:04.481Z,-0.82
2019-01-24T15:25:33.610Z,-0.83
2019-01-24T15:28:02.653Z,-0.82
2019-01-24T15:30:31.966Z,-0.74
2019-01-24T15:33:01.185Z,-0.75
2019-01-24T15:35:30.277Z,-0.69
2019-01-24T15:37:59.388Z,-0.60
2019-01-24T15:40:30.059Z,-0.66
2019-01-24T15:42:59.175Z,-0.62
2019-01-24T15:45:28.245Z,-0.62
2019-01-24T15:47:58.370Z,-0.63
2019-01-24T15:50:27.434Z,-0.66
2019-01-24T15:52:56.542Z,-0.63
2019-01-24T15:55:25.737Z,-0.54
2019-01-24T15:57:54.905Z,-0.52
2019-01-24T16:00:29.236Z,-0.52
2019-01-24T16:02:58.304Z,-0.45
2019-01-24T16:05:27.391Z,-0.45
2019-01-24T16:08:01.623Z,-0.42
2019-01-24T16:10:27.349Z,-0.38
2019-01-24T16:12:56.483Z,-0.34
2019-01-24T16:15:33.569Z,-0.36
2019-01-24T16:18:02.704Z,-0.39
2019-01-24T16:20:31.831Z,-0.44
2019-01-24T16:23:00.928Z,-0.42
2019-01-24T16:25:31.241Z,-0.38
2019-01-24T16:28:00.355Z,-0.39
2019-01-24T16:30:30.805Z,-0.35
2019-01-24T16:33:00.243Z,-0.31
2019-01-24T16:35:29.433Z,-0.34
2019-01-24T16:37:58.681Z,-0.29
2019-01-24T16:40:28.465Z,-0.33
2019-01-24T16:42:57.576Z,-0.26
2019-01-24T16:45:27.981Z,-0.28
2019-01-24T16:47:57.158Z,-0.29
2019-01-24T16:50:26.705Z,-0.29
2019-01-24T16:52:55.856Z,-0.25
2019-01-24T16:55:25.138Z,-0.22
2019-01-24T16:57:54.916Z,-0.22
2019-01-24T17:00:29.597Z,-0.21
2019-01-24T17:02:58.803Z,-0.18
2019-01-24T17:05:27.939Z,-0.12
2019-01-24T17:07:57.140Z,-0.11
2019-01-24T17:10:26.334Z,-0.09
2019-01-24T17:12:55.454Z,-0.10
2019-01-24T17:15:24.463Z,-0.08
2019-01-24T17:17:53.540Z,-0.07
2019-01-24T17:20:24.418Z,-0.09
2019-01-24T17:22:53.614Z,-0.13
2019-01-24T17:25:24.303Z,-0.10
2019-01-24T17:27:53.531Z,-0.10
2019-01-24T17:30:24.302Z,-0.09
2019-01-24T17:32:53.391Z,-0.17
2019-01-24T17:35:22.657Z,-0.16
2019-01-24T17:37:51.798Z,-0.20
2019-01-24T17:40:23.189Z,-0.19
2019-01-24T17:42:52.314Z,-0.20
2019-01-24T17:45:21.495Z,-0.16
2019-01-24T17:47:50.693Z,-0.15
2019-01-24T17:50:19.819Z,-0.10
2019-01-24T17:52:48.890Z,-0.10
2019-01-24T17:55:20.678Z,-0.16
2019-01-24T17:57:49.774Z,-0.14
2019-01-24T18:00:20.533Z,-0.13
2019-01-24T18:02:49.695Z,-0.11
2019-01-24T18:05:18.885Z,-0.06
2019-01-24T18:07:47.949Z,-0.10
2019-01-24T18:10:19.486Z,-0.15
2019-01-24T18:12:48.637Z,-0.26
2019-01-24T18:15:23.005Z,-0.30
2019-01-24T18:17:52.115Z,-0.34
2019-01-24T18:20:22.484Z,-0.32
2019-01-24T18:22:51.583Z,-0.31
2019-01-24T18:25:20.639Z,-0.32
2019-01-24T18:27:49.708Z,-0.33
2019-01-24T18:30:23.504Z,-0.21
2019-01-24T18:32:52.693Z,-0.17
2019-01-24T18:35:21.812Z,-0.21
2019-01-24T18:37:51.177Z,-0.20
2019-01-24T18:40:21.786Z,-0.18
2019-01-24T18:42:50.996Z,-0.16
2019-01-24T18:45:22.935Z,-0.16
2019-01-24T18:47:51.995Z,-0.09
2019-01-24T18:50:21.643Z,-0.16
2019-01-24T18:52:50.821Z,-0.20
2019-01-24T18:55:19.925Z,-0.16
2019-01-24T18:57:49.067Z,-0.16
2019-01-24T19:00:24.154Z,-0.22
2019-01-24T19:02:53.240Z,-0.19
2019-01-24T19:05:22.314Z,-0.25
2019-01-24T19:07:51.436Z,-0.31
2019-01-24T19:10:20.489Z,-0.46
2019-01-24T19:12:49.606Z,-0.50
2019-01-24T19:15:19.026Z,-0.54
2019-01-24T19:17:48.306Z,-0.44
2019-01-24T19:20:17.406Z,-0.38
2019-01-24T19:22:46.523Z,-0.45
2019-01-24T19:25:15.693Z,-0.48
2019-01-24T19:27:44.904Z,-0.49
2019-01-24T19:30:17.795Z,-0.46
2019-01-24T19:32:46.893Z,-0.49
2019-01-24T19:35:15.979Z,-0.44
2019-01-24T19:37:45.193Z,-0.45
2019-01-24T19:40:15.467Z,-0.43
2019-01-24T19:42:44.736Z,-0.45
2019-01-24T19:45:18.860Z,-0.48
2019-01-24T19:47:48.088Z,-0.53
2019-01-24T19:50:19.606Z,-0.57
2019-01-24T19:52:48.690Z,-0.54
2019-01-24T19:55:17.830Z,-0.60
2019-01-24T19:57:47.057Z,-0.59
2019-01-24T20:00:20.963Z,-0.56
2019-01-24T20:02:50.077Z,-0.46
2019-01-24T20:05:19.308Z,-0.51
2019-01-24T20:07:48.443Z,-0.53
2019-01-24T20:10:19.251Z,-0.54
2019-01-24T20:12:48.378Z,-0.54
2019-01-24T20:15:21.887Z,-0.55
2019-01-24T20:17:51.065Z,-0.57
2019-01-24T20:20:20.182Z,-0.44
2019-01-24T20:22:49.431Z,-0.42
2019-01-24T20:25:19.813Z,-0.39
2019-01-24T20:27:48.905Z,-0.46
2019-01-24T20:30:23.092Z,-0.46
2019-01-24T20:32:52.175Z,-0.56
2019-01-24T20:35:23.829Z,-0.59
2019-01-24T20:37:52.993Z,-0.63
2019-01-24T20:40:22.333Z,-0.68
2019-01-24T20:42:51.492Z,-0.76
2019-01-24T20:45:20.625Z,-0.79
2019-01-24T20:47:49.712Z,-0.78
2019-01-24T20:50:18.802Z,-0.82
2019-01-24T20:52:47.923Z,-0.76
2019-01-24T20:55:17.094Z,-0.69
2019-01-24T20:57:46.259Z,-0.71
2019-01-24T21:00:17.302Z,-0.64
2019-01-24T21:02:46.354Z,-0.61
2019-01-24T21:05:17.279Z,-0.62
2019-01-24T21:07:46.469Z,-0.68
2019-01-24T21:10:20.467Z,-0.68
2019-01-24T21:12:49.616Z,-0.76
2019-01-24T21:15:19.048Z,-0.84
2019-01-24T21:17:48.201Z,-0.89
2019-01-24T21:20:19.463Z,-0.87
2019-01-24T21:22:48.621Z,-0.88
2019-01-24T21:25:18.501Z,-0.85
2019-01-24T21:27:47.691Z,-0.92
2019-01-24T21:30:22.426Z,-0.92
2019-01-24T21:32:51.609Z,-0.93
2019-01-24T21:35:20.746Z,-0.95
2019-01-24T21:37:49.942Z,-1.10
2019-01-24T21:40:19.917Z,-1.17
2019-01-24T21:42:49.193Z,-1.19
2019-01-24T21:45:20.566Z,-1.22
2019-01-24T21:47:49.628Z,-1.28
2019-01-24T21:50:19.817Z,-1.34
2019-01-24T21:52:48.966Z,-1.39
2019-01-24T21:55:19.132Z,-1.43
2019-01-24T21:57:48.362Z,-1.47
2019-01-24T22:00:19.374Z,-1.52
2019-01-24T22:02:48.448Z,-1.58
2019-01-24T22:05:17.610Z,-1.64
2019-01-24T22:07:46.780Z,-1.66
2019-01-24T22:10:17.996Z,-1.71
2019-01-24T22:12:48.362Z,-1.53
2019-01-24T22:15:18.484Z,-1.45
2019-01-24T22:17:47.753Z,-1.25
2019-01-24T22:20:17.104Z,-1.21
2019-01-24T22:22:46.266Z,-1.17
2019-01-24T22:25:23.751Z,-1.25
2019-01-24T22:27:52.934Z,-1.17
2019-01-24T22:30:25.252Z,-1.21
2019-01-24T22:32:54.335Z,-1.19
2019-01-24T22:35:23.468Z,-1.23
2019-01-24T22:37:52.608Z,-1.26
2019-01-24T22:40:21.689Z,-1.35
2019-01-24T22:42:50.986Z,-1.44
2019-01-24T22:45:22.108Z,-1.47
2019-01-24T22:47:51.235Z,-1.51
2019-01-24T22:50:20.398Z,-1.48
2019-01-24T22:52:49.524Z,-1.52
2019-01-24T22:55:18.598Z,-1.53
2019-01-24T22:57:47.761Z,-1.60
2019-01-24T23:00:53.510Z,-1.62
2019-01-24T23:03:40.928Z,-1.60
2019-01-24T23:06:10.087Z,-1.64
2019-01-24T23:08:39.205Z,-1.68
2019-01-24T23:11:08.360Z,-1.77
2019-01-24T23:13:37.513Z,-1.87
2019-01-24T23:16:06.733Z,-1.87
2019-01-24T23:18:35.879Z,-1.88
2019-01-24T23:21:05.000Z,-1.94
2019-01-24T23:23:34.179Z,-1.94
2019-01-24T23:26:03.314Z,-1.96
2019-01-24T23:28:32.434Z,-1.95
2019-01-24T23:31:01.567Z,-1.97
2019-01-24T23:33:30.658Z,-2.04
2019-01-24T23:35:59.785Z,-2.06
2019-01-24T23:38:28.861Z,-2.04
2019-01-24T23:40:57.973Z,-2.03
2019-01-24T23:43:27.314Z,-2.06
2019-01-24T23:45:56.411Z,-1.99
2019-01-24T23:48:25.598Z,-2.03
2019-01-24T23:50:54.725Z,-2.03
2019-01-24T23:53:23.841Z,-2.04
2019-01-24T23:55:52.930Z,-2.06
2019-01-24T23:58:22.139Z,-2.04
